Udo Maru — JM6522 — position and weather

sailwx.info

Track history (hours):
 
Tides and Currents Weather Stations Pressure Air Temp Water Temp Dewpoint Dewpoint Depression Visibility Wind Speed Wind Dir Waves Ship Positions

Udo Maru

Last reported at 2017-Jan-18 23:31 UTC. Time now 2017-Jan-19 06:38 UTC.
Position N 35°07' E 139°45'.

Length 87 m; draft 4.9 m.

Type: Cargo ship. MMSI: 431600499.

Date/timePositionNaut miles runAvg speedWind from/ knotsBaromVisibWave heightAir tempDewpointWater temp
2017-Jan-18 23:31N 35°07' E 139°45'1111.5
2017-Jan-18 22:33N 35°18' E 139°44'7 7.1
2017-Jan-18 21:33N 35°24' E 139°48'4 4.0
2017-Jan-18 20:34N 35°22' E 139°51'0 0.0
2017-Jan-18 19:31N 35°22' E 139°51'0 0.0
2017-Jan-18 18:31N 35°22' E 139°51'0 0.0
2017-Jan-18 17:28N 35°22' E 139°51'0 0.0
2017-Jan-18 16:31N 35°22' E 139°51'0 0.0
2017-Jan-18 15:28N 35°22' E 139°51'0 0.0
2017-Jan-18 14:31N 35°22' E 139°51'2 2.0
2017-Jan-18 13:33N 35°22' E 139°49'0 0.0
2017-Jan-18 12:33N 35°22' E 139°49'0 0.0
2017-Jan-18 11:33N 35°22' E 139°49'0 0.0
2017-Jan-18 10:27N 35°22' E 139°49'0 0.0
2017-Jan-18 09:33N 35°22' E 139°49'0 0.0
2017-Jan-18 08:33N 35°22' E 139°49'0 0.0
2017-Jan-18 07:33N 35°22' E 139°49'0 0.1
2017-Jan-18 06:30N 35°22' E 139°49'0 0.0
2017-Jan-18 05:33N 35°22' E 139°49'0 0.0
2017-Jan-18 04:33N 35°22' E 139°49'3 3.4
2017-Jan-18 03:33N 35°21' E 139°45'10 9.6
2017-Jan-18 02:33N 35°12' E 139°47'3 0.1
2017-Jan-15 23:29N 35°09' E 139°44'1010.6
2017-Jan-15 22:34N 35°19' E 139°43'1010.4
2017-Jan-15 21:34N 35°28' E 139°49'8 7.3
2017-Jan-15 20:31N 35°35' E 139°54'0 0.0
2017-Jan-15 19:31N 35°35' E 139°54'0 0.0
2017-Jan-15 18:31N 35°35' E 139°54'0 0.0
2017-Jan-15 17:31N 35°35' E 139°54'0 0.0
2017-Jan-15 16:31N 35°35' E 139°54'0 0.0
2017-Jan-15 15:31N 35°35' E 139°54'0 0.0
2017-Jan-15 14:31N 35°35' E 139°54'0 0.0
2017-Jan-15 13:31N 35°35' E 139°54'0 0.0
2017-Jan-15 12:31N 35°35' E 139°54'0 0.0
2017-Jan-15 11:13N 35°35' E 139°54'0 0.0
2017-Jan-15 10:31N 35°35' E 139°54'0 0.0
2017-Jan-15 09:31N 35°35' E 139°54'0 0.1
2017-Jan-15 08:31N 35°35' E 139°54'0 0.0
2017-Jan-15 07:31N 35°35' E 139°54'0 0.0
2017-Jan-15 06:28N 35°35' E 139°54'0 0.0
2017-Jan-15 05:28N 35°35' E 139°54'0 0.0
2017-Jan-15 04:28N 35°35' E 139°54'0 0.1
2017-Jan-15 03:31N 35°35' E 139°54'0 0.1
2017-Jan-15 02:28N 35°35' E 139°54'0 0.0
2017-Jan-15 01:31N 35°35' E 139°54'0 0.0
2017-Jan-15 00:25N 35°35' E 139°54'0 0.0
2017-Jan-14 23:31N 35°35' E 139°54'0 0.0
2017-Jan-14 22:31N 35°35' E 139°54'0 0.0
2017-Jan-14 21:31N 35°35' E 139°54'0 0.0
2017-Jan-14 20:31N 35°35' E 139°54'0 0.0
2017-Jan-14 19:25N 35°35' E 139°54'0 0.0
2017-Jan-14 18:31N 35°35' E 139°54'0 0.0
2017-Jan-14 17:31N 35°35' E 139°54'0 0.0
2017-Jan-14 16:28N 35°35' E 139°54'0 0.0
2017-Jan-14 15:31N 35°35' E 139°54'0 0.1
2017-Jan-14 14:31N 35°35' E 139°54'0 0.0
2017-Jan-14 13:31N 35°35' E 139°54'0 0.0
2017-Jan-14 12:31N 35°35' E 139°54'0 0.0
2017-Jan-14 11:31N 35°35' E 139°54'0 0.0
2017-Jan-14 10:31N 35°35' E 139°54'0 0.0
2017-Jan-14 09:31N 35°35' E 139°54'0 0.0
2017-Jan-14 08:28N 35°35' E 139°54'0 0.0
2017-Jan-14 07:31N 35°35' E 139°54'0 0.0
2017-Jan-14 06:31N 35°35' E 139°54'0 0.0
2017-Jan-14 05:31N 35°35' E 139°54'0 0.0
2017-Jan-14 04:31N 35°35' E 139°54'0 0.0
2017-Jan-14 03:31N 35°35' E 139°54'0 0.0
2017-Jan-13 23:31N 35°35' E 139°54'0 0.1
2017-Jan-13 22:31N 35°35' E 139°54'0 0.0
2017-Jan-13 21:25N 35°35' E 139°54'0 0.0
2017-Jan-13 20:28N 35°35' E 139°54'0 0.0
2017-Jan-13 19:31N 35°35' E 139°54'0 0.0
2017-Jan-13 18:28N 35°35' E 139°54'0 0.0
2017-Jan-13 17:31N 35°35' E 139°54'0 0.1
2017-Jan-13 16:28N 35°35' E 139°54'0 0.1
2017-Jan-13 15:31N 35°35' E 139°54'0 0.0
2017-Jan-13 14:22N 35°35' E 139°54'0 0.0
2017-Jan-13 13:31N 35°35' E 139°54'0 0.0
2017-Jan-13 12:28N 35°35' E 139°54'0 0.1
2017-Jan-13 11:31N 35°35' E 139°54'0 0.0
2017-Jan-13 10:28N 35°35' E 139°54'0 0.0
2017-Jan-13 09:31N 35°35' E 139°54'0 0.0
2017-Jan-13 08:31N 35°35' E 139°54'0 0.1
2017-Jan-13 07:31N 35°35' E 139°54'0 0.0
2017-Jan-13 06:31N 35°35' E 139°54'0 0.0
2017-Jan-13 05:31N 35°35' E 139°54'0 0.0
2017-Jan-13 04:28N 35°35' E 139°54'0 0.0
2017-Jan-13 03:31N 35°35' E 139°54'0 0.0
2017-Jan-13 02:31N 35°35' E 139°54'0 0.0
2017-Jan-13 01:31N 35°35' E 139°54'0 0.0
2017-Jan-13 00:31N 35°35' E 139°54'0 0.1
2017-Jan-12 23:33N 35°35' E 139°54'0 0.0
2017-Jan-12 22:33N 35°35' E 139°54'3 3.1
2017-Jan-12 21:33N 35°35' E 139°58'4 0.2
2017-Jan-11 18:07N 35°34' E 140°03'0 0.0
2017-Jan-11 17:28N 35°35' E 140°03'0 0.0
2017-Jan-11 15:07N 35°34' E 140°03'0 0.0
2017-Jan-11 14:28N 35°34' E 140°03'0 0.0
2017-Jan-11 13:31N 35°34' E 140°03'0 0.0
2017-Jan-11 12:31N 35°34' E 140°03'0 0.0
2017-Jan-11 11:31N 35°34' E 140°03'0 0.1
2017-Jan-11 10:31N 35°34' E 140°03'0 0.1
2017-Jan-11 09:25N 35°35' E 140°03'0 0.1
2017-Jan-11 08:23N 35°34' E 140°03'8 9.7
2017-Jan-11 07:33N 35°30' E 139°55'1110.8
2017-Jan-11 06:33N 35°22' E 139°45'1110.4
2017-Jan-11 05:33N 35°12' E 139°47'  
Track history (hours):
 
Tides and Currents Weather Stations Pressure Air Temp Water Temp Dewpoint Dewpoint Depression Visibility Wind Speed Wind Dir Waves Ship Positions

Udo Maru

Last reported at 2017-Jan-18 23:31 UTC. Time now 2017-Jan-19 06:38 UTC.
Position N 35°07' E 139°45'.

Length 87 m; draft 4.9 m.

Type: Cargo ship. MMSI: 431600499.

Date/timePositionNaut miles runAvg speedWind from/ knotsBaromVisibWave heightAir tempDewpointWater temp
2017-Jan-18 23:31N 35°07' E 139°45'1111.5
2017-Jan-18 22:33N 35°18' E 139°44'7 7.1
2017-Jan-18 21:33N 35°24' E 139°48'4 4.0
2017-Jan-18 20:34N 35°22' E 139°51'0 0.0
2017-Jan-18 19:31N 35°22' E 139°51'0 0.0
2017-Jan-18 18:31N 35°22' E 139°51'0 0.0
2017-Jan-18 17:28N 35°22' E 139°51'0 0.0
2017-Jan-18 16:31N 35°22' E 139°51'0 0.0
2017-Jan-18 15:28N 35°22' E 139°51'0 0.0
2017-Jan-18 14:31N 35°22' E 139°51'2 2.0
2017-Jan-18 13:33N 35°22' E 139°49'0 0.0
2017-Jan-18 12:33N 35°22' E 139°49'0 0.0
2017-Jan-18 11:33N 35°22' E 139°49'0 0.0
2017-Jan-18 10:27N 35°22' E 139°49'0 0.0
2017-Jan-18 09:33N 35°22' E 139°49'0 0.0
2017-Jan-18 08:33N 35°22' E 139°49'0 0.0
2017-Jan-18 07:33N 35°22' E 139°49'0 0.1
2017-Jan-18 06:30N 35°22' E 139°49'0 0.0
2017-Jan-18 05:33N 35°22' E 139°49'0 0.0
2017-Jan-18 04:33N 35°22' E 139°49'3 3.4
2017-Jan-18 03:33N 35°21' E 139°45'10 9.6
2017-Jan-18 02:33N 35°12' E 139°47'3 0.1
2017-Jan-15 23:29N 35°09' E 139°44'1010.6
2017-Jan-15 22:34N 35°19' E 139°43'1010.4
2017-Jan-15 21:34N 35°28' E 139°49'8 7.3
2017-Jan-15 20:31N 35°35' E 139°54'0 0.0
2017-Jan-15 19:31N 35°35' E 139°54'0 0.0
2017-Jan-15 18:31N 35°35' E 139°54'0 0.0
2017-Jan-15 17:31N 35°35' E 139°54'0 0.0
2017-Jan-15 16:31N 35°35' E 139°54'0 0.0
2017-Jan-15 15:31N 35°35' E 139°54'0 0.0
2017-Jan-15 14:31N 35°35' E 139°54'0 0.0
2017-Jan-15 13:31N 35°35' E 139°54'0 0.0
2017-Jan-15 12:31N 35°35' E 139°54'0 0.0
2017-Jan-15 11:13N 35°35' E 139°54'0 0.0
2017-Jan-15 10:31N 35°35' E 139°54'0 0.0
2017-Jan-15 09:31N 35°35' E 139°54'0 0.1
2017-Jan-15 08:31N 35°35' E 139°54'0 0.0
2017-Jan-15 07:31N 35°35' E 139°54'0 0.0
2017-Jan-15 06:28N 35°35' E 139°54'0 0.0
2017-Jan-15 05:28N 35°35' E 139°54'0 0.0
2017-Jan-15 04:28N 35°35' E 139°54'0 0.1
2017-Jan-15 03:31N 35°35' E 139°54'0 0.1
2017-Jan-15 02:28N 35°35' E 139°54'0 0.0
2017-Jan-15 01:31N 35°35' E 139°54'0 0.0
2017-Jan-15 00:25N 35°35' E 139°54'0 0.0
2017-Jan-14 23:31N 35°35' E 139°54'0 0.0
2017-Jan-14 22:31N 35°35' E 139°54'0 0.0
2017-Jan-14 21:31N 35°35' E 139°54'0 0.0
2017-Jan-14 20:31N 35°35' E 139°54'0 0.0
2017-Jan-14 19:25N 35°35' E 139°54'0 0.0
2017-Jan-14 18:31N 35°35' E 139°54'0 0.0
2017-Jan-14 17:31N 35°35' E 139°54'0 0.0
2017-Jan-14 16:28N 35°35' E 139°54'0 0.0
2017-Jan-14 15:31N 35°35' E 139°54'0 0.1
2017-Jan-14 14:31N 35°35' E 139°54'0 0.0
2017-Jan-14 13:31N 35°35' E 139°54'0 0.0
2017-Jan-14 12:31N 35°35' E 139°54'0 0.0
2017-Jan-14 11:31N 35°35' E 139°54'0 0.0
2017-Jan-14 10:31N 35°35' E 139°54'0 0.0
2017-Jan-14 09:31N 35°35' E 139°54'0 0.0
2017-Jan-14 08:28N 35°35' E 139°54'0 0.0
2017-Jan-14 07:31N 35°35' E 139°54'0 0.0
2017-Jan-14 06:31N 35°35' E 139°54'0 0.0
2017-Jan-14 05:31N 35°35' E 139°54'0 0.0
2017-Jan-14 04:31N 35°35' E 139°54'0 0.0
2017-Jan-14 03:31N 35°35' E 139°54'0 0.0
2017-Jan-13 23:31N 35°35' E 139°54'0 0.1
2017-Jan-13 22:31N 35°35' E 139°54'0 0.0
2017-Jan-13 21:25N 35°35' E 139°54'0 0.0
2017-Jan-13 20:28N 35°35' E 139°54'0 0.0
2017-Jan-13 19:31N 35°35' E 139°54'0 0.0
2017-Jan-13 18:28N 35°35' E 139°54'0 0.0
2017-Jan-13 17:31N 35°35' E 139°54'0 0.1
2017-Jan-13 16:28N 35°35' E 139°54'0 0.1
2017-Jan-13 15:31N 35°35' E 139°54'0 0.0
2017-Jan-13 14:22N 35°35' E 139°54'0 0.0
2017-Jan-13 13:31N 35°35' E 139°54'0 0.0
2017-Jan-13 12:28N 35°35' E 139°54'0 0.1
2017-Jan-13 11:31N 35°35' E 139°54'0 0.0
2017-Jan-13 10:28N 35°35' E 139°54'0 0.0
2017-Jan-13 09:31N 35°35' E 139°54'0 0.0
2017-Jan-13 08:31N 35°35' E 139°54'0 0.1
2017-Jan-13 07:31N 35°35' E 139°54'0 0.0
2017-Jan-13 06:31N 35°35' E 139°54'0 0.0
2017-Jan-13 05:31N 35°35' E 139°54'0 0.0
2017-Jan-13 04:28N 35°35' E 139°54'0 0.0
2017-Jan-13 03:31N 35°35' E 139°54'0 0.0
2017-Jan-13 02:31N 35°35' E 139°54'0 0.0
2017-Jan-13 01:31N 35°35' E 139°54'0 0.0
2017-Jan-13 00:31N 35°35' E 139°54'0 0.1
2017-Jan-12 23:33N 35°35' E 139°54'0 0.0
2017-Jan-12 22:33N 35°35' E 139°54'3 3.1
2017-Jan-12 21:33N 35°35' E 139°58'4 0.2
2017-Jan-11 18:07N 35°34' E 140°03'0 0.0
2017-Jan-11 17:28N 35°35' E 140°03'0 0.0
2017-Jan-11 15:07N 35°34' E 140°03'0 0.0
2017-Jan-11 14:28N 35°34' E 140°03'0 0.0
2017-Jan-11 13:31N 35°34' E 140°03'0 0.0
2017-Jan-11 12:31N 35°34' E 140°03'0 0.0
2017-Jan-11 11:31N 35°34' E 140°03'0 0.1
2017-Jan-11 10:31N 35°34' E 140°03'0 0.1
2017-Jan-11 09:25N 35°35' E 140°03'0 0.1
2017-Jan-11 08:23N 35°34' E 140°03'8 9.7
2017-Jan-11 07:33N 35°30' E 139°55'1110.8
2017-Jan-11 06:33N 35°22' E 139°45'1110.4
2017-Jan-11 05:33N 35°12' E 139°47'  

Dump ship's entire track history